sensor_id;sensor_type;location;lat;lon;timestamp;pressure;altitude;pressure_sealevel;temperature;humidity
52927;BME280;40783;49.710;8.842;2023-07-24T00:01:31;98315.56;;;20.19;79.26
52927;BME280;40783;49.710;8.842;2023-07-24T00:03:58;98319.81;;;20.15;79.85
52927;BME280;40783;49.710;8.842;2023-07-24T00:06:26;98311.34;;;20.11;80.51
52927;BME280;40783;49.710;8.842;2023-07-24T00:08:51;98318.44;;;20.12;79.61
52927;BME280;40783;49.710;8.842;2023-07-24T00:11:16;98316.44;;;20.08;79.58
52927;BME280;40783;49.710;8.842;2023-07-24T00:13:41;98309.38;;;20.07;79.63
52927;BME280;40783;49.710;8.842;2023-07-24T00:16:07;98303.09;;;20.06;79.95
52927;BME280;40783;49.710;8.842;2023-07-24T00:18:32;98308.56;;;19.94;80.39
52927;BME280;40783;49.710;8.842;2023-07-24T00:21:00;98307.03;;;19.98;80.05
52927;BME280;40783;49.710;8.842;2023-07-24T00:23:25;98302.41;;;19.99;79.61
52927;BME280;40783;49.710;8.842;2023-07-24T00:25:50;98301.59;;;19.98;79.71
52927;BME280;40783;49.710;8.842;2023-07-24T00:28:18;98292.03;;;19.96;79.56
52927;BME280;40783;49.710;8.842;2023-07-24T00:30:45;98286.88;;;19.94;79.79
52927;BME280;40783;49.710;8.842;2023-07-24T00:33:10;98296.28;;;19.92;79.52
52927;BME280;40783;49.710;8.842;2023-07-24T00:35:36;98295.22;;;19.93;79.72
52927;BME280;40783;49.710;8.842;2023-07-24T00:38:03;98298.66;;;19.88;79.95
52927;BME280;40783;49.710;8.842;2023-07-24T00:40:28;98296.56;;;19.78;79.78
52927;BME280;40783;49.710;8.842;2023-07-24T00:42:54;98291.03;;;19.73;79.88
52927;BME280;40783;49.710;8.842;2023-07-24T00:45:19;98292.41;;;19.76;80.54
52927;BME280;40783;49.710;8.842;2023-07-24T00:47:44;98287.00;;;19.76;80.37
52927;BME280;40783;49.710;8.842;2023-07-24T00:50:10;98299.97;;;19.73;80.74
52927;BME280;40783;49.710;8.842;2023-07-24T00:52:38;98291.84;;;19.73;80.84
52927;BME280;40783;49.710;8.842;2023-07-24T00:55:04;98289.59;;;19.70;80.46
52927;BME280;40783;49.710;8.842;2023-07-24T00:57:33;98289.59;;;19.70;80.28
52927;BME280;40783;49.710;8.842;2023-07-24T00:59:58;98284.66;;;19.67;80.84
52927;BME280;40783;49.710;8.842;2023-07-24T01:02:24;98284.66;;;19.67;80.31
52927;BME280;40783;49.710;8.842;2023-07-24T01:04:50;98272.63;;;19.63;80.31
52927;BME280;40783;49.710;8.842;2023-07-24T01:07:15;98268.53;;;19.61;80.89
52927;BME280;40783;49.710;8.842;2023-07-24T01:09:41;98272.03;;;19.61;79.98
52927;BME280;40783;49.710;8.842;2023-07-24T01:14:43;98278.34;;;19.50;79.86
52927;BME280;40783;49.710;8.842;2023-07-24T01:17:10;98274.56;;;19.51;79.74
52927;BME280;40783;49.710;8.842;2023-07-24T01:24:48;98271.75;;;19.46;79.56
52927;BME280;40783;49.710;8.842;2023-07-24T01:27:25;98268.44;;;19.43;79.35
52927;BME280;40783;49.710;8.842;2023-07-24T01:29:51;98263.34;;;19.47;79.38
52927;BME280;40783;49.710;8.842;2023-07-24T01:32:18;98250.84;;;19.46;79.79
52927;BME280;40783;49.710;8.842;2023-07-24T01:34:44;98248.41;;;19.45;79.69
52927;BME280;40783;49.710;8.842;2023-07-24T01:37:09;98248.41;;;19.45;79.58
52927;BME280;40783;49.710;8.842;2023-07-24T01:39:40;98244.53;;;19.28;79.66
52927;BME280;40783;49.710;8.842;2023-07-24T01:42:05;98244.66;;;19.22;79.83
52927;BME280;40783;49.710;8.842;2023-07-24T01:44:31;98242.63;;;19.29;80.23
52927;BME280;40783;49.710;8.842;2023-07-24T01:46:56;98248.19;;;19.34;79.89
52927;BME280;40783;49.710;8.842;2023-07-24T01:49:24;98245.47;;;19.34;79.61
52927;BME280;40783;49.710;8.842;2023-07-24T01:51:51;98248.66;;;19.31;80.13
52927;BME280;40783;49.710;8.842;2023-07-24T01:54:17;98250.88;;;19.34;79.44
52927;BME280;40783;49.710;8.842;2023-07-24T01:56:42;98254.41;;;19.35;79.96
52927;BME280;40783;49.710;8.842;2023-07-24T01:59:08;98241.56;;;19.30;80.16
52927;BME280;40783;49.710;8.842;2023-07-24T02:01:33;98240.41;;;19.26;80.76
52927;BME280;40783;49.710;8.842;2023-07-24T02:04:01;98245.00;;;19.25;80.74
52927;BME280;40783;49.710;8.842;2023-07-24T02:06:26;98250.06;;;19.22;81.28
52927;BME280;40783;49.710;8.842;2023-07-24T02:08:54;98228.63;;;19.08;82.38
52927;BME280;40783;49.710;8.842;2023-07-24T02:11:19;98202.81;;;18.94;82.16
52927;BME280;40783;49.710;8.842;2023-07-24T02:13:44;98203.88;;;18.69;83.45
52927;BME280;40783;49.710;8.842;2023-07-24T02:16:12;98197.50;;;18.75;83.85
52927;BME280;40783;49.710;8.842;2023-07-24T02:18:41;98181.41;;;18.68;83.50
52927;BME280;40783;49.710;8.842;2023-07-24T02:21:09;98173.03;;;18.70;84.05
52927;BME280;40783;49.710;8.842;2023-07-24T02:23:36;98169.84;;;18.73;83.63
52927;BME280;40783;49.710;8.842;2023-07-24T02:26:02;98178.69;;;18.80;83.52
52927;BME280;40783;49.710;8.842;2023-07-24T02:28:29;98178.44;;;18.70;83.94
52927;BME280;40783;49.710;8.842;2023-07-24T02:30:54;98192.19;;;18.57;84.28
52927;BME280;40783;49.710;8.842;2023-07-24T02:33:24;98193.16;;;18.50;84.10
52927;BME280;40783;49.710;8.842;2023-07-24T02:35:50;98196.34;;;18.47;84.14
52927;BME280;40783;49.710;8.842;2023-07-24T02:38:16;98183.84;;;18.46;83.70
52927;BME280;40783;49.710;8.842;2023-07-24T02:40:44;98188.09;;;18.42;84.10
52927;BME280;40783;49.710;8.842;2023-07-24T02:43:09;98200.81;;;18.53;84.01
52927;BME280;40783;49.710;8.842;2023-07-24T02:45:34;98199.16;;;18.64;83.25
52927;BME280;40783;49.710;8.842;2023-07-24T02:48:02;98197.97;;;18.72;82.38
52927;BME280;40783;49.710;8.842;2023-07-24T02:50:27;98190.91;;;18.71;81.94
52927;BME280;40783;49.710;8.842;2023-07-24T02:52:55;98190.44;;;18.74;82.28
52927;BME280;40783;49.710;8.842;2023-07-24T02:55:20;98181.13;;;18.82;81.41
52927;BME280;40783;49.710;8.842;2023-07-24T02:57:45;98187.28;;;18.77;81.27
52927;BME280;40783;49.710;8.842;2023-07-24T03:00:11;98187.88;;;18.79;81.11
52927;BME280;40783;49.710;8.842;2023-07-24T03:02:36;98189.97;;;18.77;81.09
52927;BME280;40783;49.710;8.842;2023-07-24T03:05:03;98188.22;;;18.71;81.88
52927;BME280;40783;49.710;8.842;2023-07-24T03:07:29;98179.28;;;18.71;81.79
52927;BME280;40783;49.710;8.842;2023-07-24T03:09:54;98178.44;;;18.46;83.01
52927;BME280;40783;49.710;8.842;2023-07-24T03:12:19;98177.25;;;18.42;83.10
52927;BME280;40783;49.710;8.842;2023-07-24T03:14:44;98175.41;;;18.54;83.06
52927;BME280;40783;49.710;8.842;2023-07-24T03:17:09;98169.47;;;18.58;82.68
52927;BME280;40783;49.710;8.842;2023-07-24T03:19:35;98167.38;;;18.60;82.62
52927;BME280;40783;49.710;8.842;2023-07-24T03:22:00;98166.91;;;18.63;81.98
52927;BME280;40783;49.710;8.842;2023-07-24T03:24:27;98154.78;;;18.65;82.06
52927;BME280;40783;49.710;8.842;2023-07-24T03:26:53;98157.25;;;18.67;81.82
52927;BME280;40783;49.710;8.842;2023-07-24T03:29:18;98155.00;;;18.64;81.72
52927;BME280;40783;49.710;8.842;2023-07-24T03:31:43;98149.00;;;18.62;82.29
52927;BME280;40783;49.710;8.842;2023-07-24T03:34:10;98156.06;;;18.63;81.73
52927;BME280;40783;49.710;8.842;2023-07-24T03:36:38;98153.59;;;18.61;81.70
52927;BME280;40783;49.710;8.842;2023-07-24T03:39:06;98148.41;;;18.60;81.32
52927;BME280;40783;49.710;8.842;2023-07-24T03:41:31;98156.06;;;18.63;81.86
52927;BME280;40783;49.710;8.842;2023-07-24T03:43:56;98138.63;;;18.59;81.70
52927;BME280;40783;49.710;8.842;2023-07-24T03:46:22;98138.63;;;18.59;81.97
52927;BME280;40783;49.710;8.842;2023-07-24T03:48:49;98136.53;;;18.61;81.48
52927;BME280;40783;49.710;8.842;2023-07-24T03:51:15;98134.66;;;18.49;82.18
52927;BME280;40783;49.710;8.842;2023-07-24T03:53:41;98137.84;;;18.46;82.08
52927;BME280;40783;49.710;8.842;2023-07-24T03:56:08;98133.81;;;18.49;82.90
52927;BME280;40783;49.710;8.842;2023-07-24T03:58:34;98147.59;;;18.47;82.53
52927;BME280;40783;49.710;8.842;2023-07-24T04:00:59;98141.00;;;18.43;83.33
52927;BME280;40783;49.710;8.842;2023-07-24T04:03:24;98145.03;;;18.52;83.14
52927;BME280;40783;49.710;8.842;2023-07-24T04:05:49;98145.59;;;18.43;83.06
52927;BME280;40783;49.710;8.842;2023-07-24T04:08:19;98138.88;;;18.45;83.54
52927;BME280;40783;49.710;8.842;2023-07-24T04:10:47;98125.34;;;18.45;83.75
52927;BME280;40783;49.710;8.842;2023-07-24T04:13:12;98123.81;;;18.26;84.50
52927;BME280;40783;49.710;8.842;2023-07-24T04:15:37;98118.03;;;18.22;85.20
52927;BME280;40783;49.710;8.842;2023-07-24T04:18:04;98116.28;;;18.28;86.71
52927;BME280;40783;49.710;8.842;2023-07-24T04:20:29;98121.69;;;18.28;84.98
52927;BME280;40783;49.710;8.842;2023-07-24T04:22:54;98126.16;;;18.34;85.72
52927;BME280;40783;49.710;8.842;2023-07-24T04:25:20;98121.22;;;18.31;85.96
52927;BME280;40783;49.710;8.842;2023-07-24T04:27:47;98117.81;;;18.35;85.46
52927;BME280;40783;49.710;8.842;2023-07-24T04:30:14;98107.69;;;18.43;85.09
52927;BME280;40783;49.710;8.842;2023-07-24T04:32:40;98105.22;;;18.41;85.90
52927;BME280;40783;49.710;8.842;2023-07-24T04:35:05;98108.75;;;18.30;86.18
52927;BME280;40783;49.710;8.842;2023-07-24T04:37:30;98123.22;;;18.35;86.91
52927;BME280;40783;49.710;8.842;2023-07-24T04:39:56;98119.91;;;18.33;88.01
52927;BME280;40783;49.710;8.842;2023-07-24T04:42:25;98112.38;;;18.35;87.13
52927;BME280;40783;49.710;8.842;2023-07-24T04:44:51;98118.41;;;18.49;86.12
52927;BME280;40783;49.710;8.842;2023-07-24T04:47:16;98130.44;;;18.53;87.32
52927;BME280;40783;49.710;8.842;2023-07-24T04:49:42;98119.34;;;18.43;86.55
52927;BME280;40783;49.710;8.842;2023-07-24T04:52:07;98120.06;;;18.50;89.10
52927;BME280;40783;49.710;8.842;2023-07-24T04:54:32;98113.94;;;18.43;89.39
52927;BME280;40783;49.710;8.842;2023-07-24T04:56:57;98124.28;;;18.34;90.04
52927;BME280;40783;49.710;8.842;2023-07-24T04:59:22;98120.50;;;18.23;92.36
52927;BME280;40783;49.710;8.842;2023-07-24T05:01:48;98113.09;;;18.31;90.11
52927;BME280;40783;49.710;8.842;2023-07-24T05:04:14;98108.75;;;18.30;90.16
52927;BME280;40783;49.710;8.842;2023-07-24T05:06:39;98117.22;;;18.33;89.41
52927;BME280;40783;49.710;8.842;2023-07-24T05:09:04;98119.34;;;18.43;89.25
52927;BME280;40783;49.710;8.842;2023-07-24T05:11:29;98125.00;;;18.53;88.49
52927;BME280;40783;49.710;8.842;2023-07-24T05:13:57;98120.66;;;18.52;89.20
52927;BME280;40783;49.710;8.842;2023-07-24T05:16:22;98109.34;;;18.67;88.10
52927;BME280;40783;49.710;8.842;2023-07-24T05:18:47;98107.56;;;18.73;87.62
52927;BME280;40783;49.710;8.842;2023-07-24T05:21:12;98106.13;;;18.82;87.41
52927;BME280;40783;49.710;8.842;2023-07-24T05:23:37;98104.03;;;18.84;87.55
52927;BME280;40783;49.710;8.842;2023-07-24T05:26:03;98101.78;;;18.81;87.22
52927;BME280;40783;49.710;8.842;2023-07-24T05:28:29;98094.34;;;18.89;86.97
52927;BME280;40783;49.710;8.842;2023-07-24T05:30:54;98094.59;;;18.99;86.55
52927;BME280;40783;49.710;8.842;2023-07-24T05:33:20;98094.81;;;18.97;87.00
52927;BME280;40783;49.710;8.842;2023-07-24T05:35:45;98088.13;;;19.00;87.57
52927;BME280;40783;49.710;8.842;2023-07-24T05:38:10;98096.59;;;19.04;87.40
52927;BME280;40783;49.710;8.842;2023-07-24T05:40:35;98079.84;;;19.07;87.89
52927;BME280;40783;49.710;8.842;2023-07-24T05:43:01;98096.44;;;19.10;89.78
52927;BME280;40783;49.710;8.842;2023-07-24T05:45:26;98088.88;;;19.12;88.27
52927;BME280;40783;49.710;8.842;2023-07-24T05:47:51;98098.09;;;19.11;91.23
52927;BME280;40783;49.710;8.842;2023-07-24T05:50:17;98098.09;;;19.11;89.89
52927;BME280;40783;49.710;8.842;2023-07-24T05:52:42;98101.38;;;19.13;92.43
52927;BME280;40783;49.710;8.842;2023-07-24T05:55:07;98106.09;;;19.18;90.51
52927;BME280;40783;49.710;8.842;2023-07-24T05:57:33;98104.19;;;19.19;91.28
52927;BME280;40783;49.710;8.842;2023-07-24T05:59:58;98111.63;;;19.23;91.05
52927;BME280;40783;49.710;8.842;2023-07-24T06:02:25;98116.56;;;19.26;89.93
52927;BME280;40783;49.710;8.842;2023-07-24T06:04:51;98112.63;;;19.34;89.57
52927;BME280;40783;49.710;8.842;2023-07-24T06:07:19;98114.28;;;19.35;91.16
52927;BME280;40783;49.710;8.842;2023-07-24T06:09:44;98120.63;;;19.41;88.75
52927;BME280;40783;49.710;8.842;2023-07-24T06:12:09;98114.50;;;19.46;92.48
52927;BME280;40783;49.710;8.842;2023-07-24T06:14:36;98122.72;;;19.51;94.31
52927;BME280;40783;49.710;8.842;2023-07-24T06:17:02;98130.28;;;19.49;94.10
52927;BME280;40783;49.710;8.842;2023-07-24T06:19:27;98129.31;;;19.55;94.06
52927;BME280;40783;49.710;8.842;2023-07-24T06:21:52;98123.16;;;19.60;92.16
52927;BME280;40783;49.710;8.842;2023-07-24T06:24:17;98117.66;;;19.71;93.77
52927;BME280;40783;49.710;8.842;2023-07-24T06:26:43;98120.25;;;19.78;94.29
52927;BME280;40783;49.710;8.842;2023-07-24T06:29:08;98118.56;;;19.89;92.77
52927;BME280;40783;49.710;8.842;2023-07-24T06:31:33;98119.81;;;19.98;94.20
52927;BME280;40783;49.710;8.842;2023-07-24T06:33:58;98115.19;;;19.99;92.93
52927;BME280;40783;49.710;8.842;2023-07-24T06:36:26;98105.00;;;20.06;96.89
52927;BME280;40783;49.710;8.842;2023-07-24T06:38:51;98105.91;;;20.12;93.41
52927;BME280;40783;49.710;8.842;2023-07-24T06:41:16;98103.75;;;20.14;92.28
52927;BME280;40783;49.710;8.842;2023-07-24T06:43:42;98117.41;;;20.19;93.55
52927;BME280;40783;49.710;8.842;2023-07-24T06:46:09;98107.72;;;20.23;95.03
52927;BME280;40783;49.710;8.842;2023-07-24T06:48:37;98112.16;;;20.29;92.73
52927;BME280;40783;49.710;8.842;2023-07-24T06:51:02;98107.38;;;20.37;95.05
52927;BME280;40783;49.710;8.842;2023-07-24T06:53:30;98104.75;;;20.42;91.22
52927;BME280;40783;49.710;8.842;2023-07-24T06:55:55;98108.84;;;20.44;89.13
52927;BME280;40783;49.710;8.842;2023-07-24T06:58:20;98117.06;;;20.50;89.74
52927;BME280;40783;49.710;8.842;2023-07-24T07:00:48;98101.13;;;20.53;87.39
52927;BME280;40783;49.710;8.842;2023-07-24T07:03:15;98101.75;;;20.60;89.97
52927;BME280;40783;49.710;8.842;2023-07-24T07:05:43;98093.00;;;20.75;88.66
52927;BME280;40783;49.710;8.842;2023-07-24T07:08:08;98089.63;;;20.85;87.96
52927;BME280;40783;49.710;8.842;2023-07-24T07:10:34;98086.41;;;20.88;88.29
52927;BME280;40783;49.710;8.842;2023-07-24T07:12:59;98090.53;;;20.91;86.39
52927;BME280;40783;49.710;8.842;2023-07-24T07:15:26;98083.19;;;20.92;86.16
52927;BME280;40783;49.710;8.842;2023-07-24T07:17:51;98085.91;;;20.92;87.56
52927;BME280;40783;49.710;8.842;2023-07-24T07:20:17;98083.13;;;20.86;90.19
52927;BME280;40783;49.710;8.842;2023-07-24T07:22:42;98079.53;;;21.03;88.25
52927;BME280;40783;49.710;8.842;2023-07-24T07:25:07;98067.13;;;21.12;86.67
52927;BME280;40783;49.710;8.842;2023-07-24T07:27:33;98066.94;;;21.46;84.85
52927;BME280;40783;49.710;8.842;2023-07-24T07:29:58;98065.47;;;21.61;84.03
52927;BME280;40783;49.710;8.842;2023-07-24T07:32:25;98070.03;;;21.83;83.52
52927;BME280;40783;49.710;8.842;2023-07-24T07:34:52;98073.53;;;22.11;84.38
52927;BME280;40783;49.710;8.842;2023-07-24T07:37:17;98073.16;;;22.34;82.91
52927;BME280;40783;49.710;8.842;2023-07-24T07:39:42;98082.94;;;22.30;79.80
52927;BME280;40783;49.710;8.842;2023-07-24T07:42:07;98084.75;;;22.52;78.40
52927;BME280;40783;49.710;8.842;2023-07-24T07:44:32;98082.94;;;22.30;80.28
52927;BME280;40783;49.710;8.842;2023-07-24T07:47:00;98089.38;;;22.57;80.67
52927;BME280;40783;49.710;8.842;2023-07-24T07:49:25;98082.84;;;22.58;80.13
52927;BME280;40783;49.710;8.842;2023-07-24T07:51:50;98093.53;;;22.64;80.24
52927;BME280;40783;49.710;8.842;2023-07-24T07:54:18;98093.09;;;22.78;78.88
52927;BME280;40783;49.710;8.842;2023-07-24T07:56:43;98089.63;;;22.50;79.33
52927;BME280;40783;49.710;8.842;2023-07-24T07:59:09;98091.31;;;22.56;79.71
52927;BME280;40783;49.710;8.842;2023-07-24T08:01:35;98089.63;;;22.50;79.02
52927;BME280;40783;49.710;8.842;2023-07-24T08:04:01;98091.25;;;22.46;79.88
52927;BME280;40783;49.710;8.842;2023-07-24T08:06:26;98089.78;;;22.71;79.74
52927;BME280;40783;49.710;8.842;2023-07-24T08:08:51;98087.66;;;22.88;79.04
52927;BME280;40783;49.710;8.842;2023-07-24T08:11:19;98079.97;;;22.80;79.32
52927;BME280;40783;49.710;8.842;2023-07-24T08:13:44;98074.84;;;22.83;79.48
52927;BME280;40783;49.710;8.842;2023-07-24T08:16:15;98087.56;;;22.67;78.93
52927;BME280;40783;49.710;8.842;2023-07-24T08:18:47;98092.94;;;22.57;79.49
52927;BME280;40783;49.710;8.842;2023-07-24T08:21:13;98090.78;;;22.59;80.74
52927;BME280;40783;49.710;8.842;2023-07-24T08:23:40;98094.59;;;22.58;80.55
52927;BME280;40783;49.710;8.842;2023-07-24T08:26:06;98086.38;;;22.53;81.36
52927;BME280;40783;49.710;8.842;2023-07-24T08:28:32;98091.84;;;22.53;80.90
52927;BME280;40783;49.710;8.842;2023-07-24T08:30:58;98080.94;;;22.53;81.85
52927;BME280;40783;49.710;8.842;2023-07-24T08:33:24;98085.28;;;22.49;82.21
52927;BME280;40783;49.710;8.842;2023-07-24T08:36:01;98078.00;;;22.22;83.30
52927;BME280;40783;49.710;8.842;2023-07-24T08:38:27;98067.09;;;22.27;83.00
52927;BME280;40783;49.710;8.842;2023-07-24T08:43:27;98056.22;;;22.27;84.69
52927;BME280;40783;49.710;8.842;2023-07-24T08:45:53;98054.56;;;22.26;85.73
52927;BME280;40783;49.710;8.842;2023-07-24T08:48:19;98061.72;;;22.37;87.07
52927;BME280;40783;49.710;8.842;2023-07-24T08:50:45;98063.91;;;22.35;84.25
52927;BME280;40783;49.710;8.842;2023-07-24T08:53:11;98052.47;;;22.38;82.83
52927;BME280;40783;49.710;8.842;2023-07-24T08:55:39;98054.19;;;22.45;86.32
52927;BME280;40783;49.710;8.842;2023-07-24T08:58:08;98057.78;;;22.56;85.24
52927;BME280;40783;49.710;8.842;2023-07-24T09:00:34;98064.59;;;22.53;83.53
52927;BME280;40783;49.710;8.842;2023-07-24T09:02:59;98064.91;;;22.62;82.54
52927;BME280;40783;49.710;8.842;2023-07-24T09:05:28;98055.47;;;22.75;83.64
52927;BME280;40783;49.710;8.842;2023-07-24T09:07:53;98052.72;;;22.80;83.08
52927;BME280;40783;49.710;8.842;2023-07-24T09:10:24;98061.28;;;22.99;85.50
52927;BME280;40783;49.710;8.842;2023-07-24T09:12:49;98073.59;;;23.12;82.20
52927;BME280;40783;49.710;8.842;2023-07-24T09:15:14;98080.41;;;23.15;83.99
52927;BME280;40783;49.710;8.842;2023-07-24T09:17:47;98065.41;;;23.12;83.68
52927;BME280;40783;49.710;8.842;2023-07-24T09:20:12;98046.69;;;23.31;83.60
52927;BME280;40783;49.710;8.842;2023-07-24T09:22:37;98048.63;;;23.46;83.34
52927;BME280;40783;49.710;8.842;2023-07-24T09:25:12;98038.81;;;23.66;83.16
52927;BME280;40783;49.710;8.842;2023-07-24T09:27:37;98022.44;;;23.92;81.85
52927;BME280;40783;49.710;8.842;2023-07-24T09:30:11;98013.72;;;24.15;81.25
52927;BME280;40783;49.710;8.842;2023-07-24T09:32:36;98000.06;;;24.05;78.40
52927;BME280;40783;49.710;8.842;2023-07-24T09:35:15;97989.66;;;23.92;77.79
52927;BME280;40783;49.710;8.842;2023-07-24T09:37:43;97986.94;;;23.45;79.79
52927;BME280;40783;49.710;8.842;2023-07-24T09:40:11;97992.13;;;23.31;78.79
52927;BME280;40783;49.710;8.842;2023-07-24T09:42:37;97990.16;;;23.16;80.18
52927;BME280;40783;49.710;8.842;2023-07-24T09:45:04;97989.03;;;23.02;81.47
52927;BME280;40783;49.710;8.842;2023-07-24T09:47:30;97977.56;;;22.94;81.52
52927;BME280;40783;49.710;8.842;2023-07-24T09:49:55;97985.97;;;22.82;81.33
52927;BME280;40783;49.710;8.842;2023-07-24T09:52:21;98005.28;;;22.71;83.05
52927;BME280;40783;49.710;8.842;2023-07-24T09:57:17;98031.38;;;22.56;83.84
52927;BME280;40783;49.710;8.842;2023-07-24T09:59:43;98026.41;;;22.48;83.62
52927;BME280;40783;49.710;8.842;2023-07-24T10:02:10;98036.75;;;22.46;84.46
52927;BME280;40783;49.710;8.842;2023-07-24T10:04:36;98029.66;;;22.45;84.16
52927;BME280;40783;49.710;8.842;2023-07-24T10:07:02;98027.19;;;22.43;85.71
52927;BME280;40783;49.710;8.842;2023-07-24T10:09:31;98028.03;;;22.44;85.70
52927;BME280;40783;49.710;8.842;2023-07-24T10:11:59;98025.88;;;22.46;87.08
52927;BME280;40783;49.710;8.842;2023-07-24T10:14:25;98021.53;;;22.50;89.34
52927;BME280;40783;49.710;8.842;2023-07-24T10:16:54;98033.97;;;22.41;91.04
52927;BME280;40783;49.710;8.842;2023-07-24T10:19:20;98019.34;;;22.47;91.49
52927;BME280;40783;49.710;8.842;2023-07-24T10:21:46;98018.25;;;22.48;89.35
52927;BME280;40783;49.710;8.842;2023-07-24T10:24:12;98017.72;;;22.51;89.18
52927;BME280;40783;49.710;8.842;2023-07-24T10:26:37;98017.47;;;22.58;90.18
52927;BME280;40783;49.710;8.842;2023-07-24T10:29:02;98020.50;;;22.61;87.73
52927;BME280;40783;49.710;8.842;2023-07-24T10:31:28;98016.41;;;22.64;87.08
52927;BME280;40783;49.710;8.842;2023-07-24T10:33:54;98025.16;;;22.66;87.34
52927;BME280;40783;49.710;8.842;2023-07-24T10:36:21;98024.38;;;22.71;87.84
52927;BME280;40783;49.710;8.842;2023-07-24T10:38:52;98018.88;;;22.65;86.57
52927;BME280;40783;49.710;8.842;2023-07-24T10:41:20;98009.56;;;22.56;86.03
52927;BME280;40783;49.710;8.842;2023-07-24T10:43:48;98018.78;;;22.45;87.07
52927;BME280;40783;49.710;8.842;2023-07-24T10:46:37;98013.31;;;22.45;88.03
52927;BME280;40783;49.710;8.842;2023-07-24T10:49:20;98017.22;;;22.59;89.09
52927;BME280;40783;49.710;8.842;2023-07-24T10:52:23;98011.56;;;22.71;88.90
52927;BME280;40783;49.710;8.842;2023-07-24T10:54:44;98008.59;;;22.88;88.73
52927;BME280;40783;49.710;8.842;2023-07-24T10:57:25;98006.97;;;22.87;86.18
52927;BME280;40783;49.710;8.842;2023-07-24T10:59:50;98005.38;;;23.02;85.65
52927;BME280;40783;49.710;8.842;2023-07-24T11:02:16;98006.50;;;23.11;85.73
52927;BME280;40783;49.710;8.842;2023-07-24T11:04:49;98003.81;;;23.16;85.91
52927;BME280;40783;49.710;8.842;2023-07-24T11:07:16;97988.50;;;23.05;84.03
52927;BME280;40783;49.710;8.842;2023-07-24T11:09:47;98001.34;;;23.20;83.39
52927;BME280;40783;49.710;8.842;2023-07-24T11:12:13;98007.69;;;23.31;82.18
52927;BME280;40783;49.710;8.842;2023-07-24T11:14:49;98003.59;;;23.38;81.66
52927;BME280;40783;49.710;8.842;2023-07-24T11:17:14;98006.31;;;23.38;81.46
52927;BME280;40783;49.710;8.842;2023-07-24T11:19:42;97997.88;;;23.45;79.64
52927;BME280;40783;49.710;8.842;2023-07-24T11:22:08;97998.41;;;23.52;80.41
52927;BME280;40783;49.710;8.842;2023-07-24T11:24:42;97991.88;;;23.59;78.90
52927;BME280;40783;49.710;8.842;2023-07-24T11:27:13;97983.16;;;23.67;79.96
52927;BME280;40783;49.710;8.842;2023-07-24T11:30:25;97992.41;;;23.55;79.25
52927;BME280;40783;49.710;8.842;2023-07-24T11:32:28;97980.44;;;23.67;78.04
52927;BME280;40783;49.710;8.842;2023-07-24T11:34:53;97988.63;;;23.77;78.18
52927;BME280;40783;49.710;8.842;2023-07-24T11:37:18;97982.59;;;23.75;77.73
52927;BME280;40783;49.710;8.842;2023-07-24T11:42:21;97985.88;;;23.72;76.51
52927;BME280;40783;49.710;8.842;2023-07-24T11:44:52;97992.97;;;23.73;76.54
52927;BME280;40783;49.710;8.842;2023-07-24T11:47:20;97984.25;;;23.71;76.70
52927;BME280;40783;49.710;8.842;2023-07-24T11:49:55;97974.13;;;23.71;77.10
52927;BME280;40783;49.710;8.842;2023-07-24T11:52:45;97968.66;;;23.87;77.29
52927;BME280;40783;49.710;8.842;2023-07-24T11:55:13;97979.88;;;24.01;77.94
52927;BME280;40783;49.710;8.842;2023-07-24T11:57:39;97986.41;;;24.10;78.62
52927;BME280;40783;49.710;8.842;2023-07-24T12:00:05;97985.31;;;24.17;78.42
52927;BME280;40783;49.710;8.842;2023-07-24T12:02:31;97980.38;;;24.24;76.66
52927;BME280;40783;49.710;8.842;2023-07-24T12:05:05;97954.19;;;24.07;77.88
52927;BME280;40783;49.710;8.842;2023-07-24T12:07:34;97954.72;;;24.14;78.00
52927;BME280;40783;49.710;8.842;2023-07-24T12:10:03;97956.38;;;24.05;78.22
52927;BME280;40783;49.710;8.842;2023-07-24T12:12:42;97962.13;;;23.88;80.27
52927;BME280;40783;49.710;8.842;2023-07-24T12:15:14;97955.81;;;23.88;82.10
52927;BME280;40783;49.710;8.842;2023-07-24T12:17:42;97959.09;;;23.90;79.44
52927;BME280;40783;49.710;8.842;2023-07-24T12:20:07;97970.00;;;24.21;81.29
52927;BME280;40783;49.710;8.842;2023-07-24T12:22:34;97954.69;;;24.30;77.33
52927;BME280;40783;49.710;8.842;2023-07-24T12:25:00;97949.78;;;24.22;78.51
52927;BME280;40783;49.710;8.842;2023-07-24T12:27:25;97945.97;;;24.23;79.77
52927;BME280;40783;49.710;8.842;2023-07-24T12:29:58;97966.22;;;24.11;79.47
52927;BME280;40783;49.710;8.842;2023-07-24T12:32:23;97947.63;;;24.19;78.07
52927;BME280;40783;49.710;8.842;2023-07-24T12:34:49;97927.94;;;24.22;76.10
52927;BME280;40783;49.710;8.842;2023-07-24T12:37:15;97935.03;;;24.28;78.63
52927;BME280;40783;49.710;8.842;2023-07-24T12:39:43;97935.00;;;24.33;78.19
52927;BME280;40783;49.710;8.842;2023-07-24T12:42:08;97947.59;;;24.24;77.41
52927;BME280;40783;49.710;8.842;2023-07-24T12:44:33;97937.47;;;24.35;77.60
52927;BME280;40783;49.710;8.842;2023-07-24T12:46:59;97945.31;;;24.47;77.67
52927;BME280;40783;49.710;8.842;2023-07-24T12:49:29;97936.53;;;24.60;78.71
52927;BME280;40783;49.710;8.842;2023-07-24T12:51:54;97940.34;;;24.64;80.60
52927;BME280;40783;49.710;8.842;2023-07-24T12:54:19;97912.69;;;24.76;79.61
52927;BME280;40783;49.710;8.842;2023-07-24T12:56:49;97916.31;;;24.61;79.46
52927;BME280;40783;49.710;8.842;2023-07-24T12:59:14;97925.09;;;24.48;78.27
52927;BME280;40783;49.710;8.842;2023-07-24T13:01:39;97920.72;;;24.52;76.97
52927;BME280;40783;49.710;8.842;2023-07-24T13:04:05;97924.00;;;24.49;77.62
52927;BME280;40783;49.710;8.842;2023-07-24T13:06:30;97912.53;;;24.47;76.68
52927;BME280;40783;49.710;8.842;2023-07-24T13:08:55;97898.06;;;24.46;76.55
52927;BME280;40783;49.710;8.842;2023-07-24T13:11:21;97913.19;;;24.28;78.53
52927;BME280;40783;49.710;8.842;2023-07-24T13:13:46;97906.66;;;23.98;79.30